createdAt,value
2024-01-05T04:33:24.003Z,95794.44
2024-01-05T04:35:51.684Z,95782.56
2024-01-05T04:38:18.803Z,95782.03
2024-01-05T04:40:46.051Z,95791.81
2024-01-05T04:43:13.055Z,95802.34
2024-01-05T04:45:41.531Z,95814.53
2024-01-05T04:48:08.678Z,95826.69
2024-01-05T04:50:36.941Z,95829.66
2024-01-05T04:53:04.143Z,95836.28
2024-01-05T04:55:31.467Z,95826.94
2024-01-05T04:57:59.048Z,95820.09
2024-01-05T05:00:26.398Z,95820.34
2024-01-05T05:02:53.599Z,95819.50
2024-01-05T05:05:20.802Z,95819.84
2024-01-05T05:07:47.899Z,95816.38
2024-01-05T05:10:15.335Z,95803.91
2024-01-05T05:12:42.394Z,95800.25
2024-01-05T05:15:11.524Z,95796.03
2024-01-05T05:17:38.700Z,95790.00
2024-01-05T05:20:06.161Z,95797.56
2024-01-05T05:22:34.178Z,95794.06
2024-01-05T05:27:28.308Z,95789.13
2024-01-05T05:29:55.374Z,95797.63
2024-01-05T05:32:22.444Z,95790.75
2024-01-05T05:34:49.509Z,95799.75
2024-01-05T05:37:16.648Z,95803.19
2024-01-05T05:39:43.691Z,95798.44
2024-01-05T05:42:10.780Z,95796.31
2024-01-05T05:44:37.811Z,95803.19
2024-01-05T05:47:04.955Z,95800.53
2024-01-05T05:49:32.157Z,95809.81
2024-01-05T05:51:59.310Z,95798.69
2024-01-05T05:54:26.792Z,95789.94
2024-01-05T05:56:54.024Z,95790.50
2024-01-05T05:59:21.128Z,95794.69
2024-01-05T06:01:48.364Z,95792.03
2024-01-05T06:04:15.542Z,95789.63
2024-01-05T06:06:42.771Z,95787.03
2024-01-05T06:09:09.925Z,95789.13
2024-01-05T06:11:36.970Z,95781.75
2024-01-05T06:14:05.608Z,95789.47
2024-01-05T06:16:32.640Z,95782.81
2024-01-05T06:18:59.698Z,95782.03
2024-01-05T06:21:26.802Z,95791.84
2024-01-05T06:23:55.221Z,95797.66
2024-01-05T06:26:22.309Z,95794.97
2024-01-05T06:28:49.383Z,95799.19
2024-01-05T06:31:16.551Z,95802.41
2024-01-05T06:33:44.087Z,95795.50
2024-01-05T06:36:11.301Z,95809.78
2024-01-05T06:38:38.383Z,95813.75
2024-01-05T06:41:05.716Z,95816.69
2024-01-05T06:43:32.760Z,95815.63
2024-01-05T06:45:59.798Z,95817.97
2024-01-05T06:48:27.046Z,95818.50
2024-01-05T06:50:54.279Z,95827.81
2024-01-05T06:53:21.295Z,95820.66
2024-01-05T06:55:48.434Z,95827.28
2024-01-05T06:58:15.516Z,95834.69
2024-01-05T07:00:42.881Z,95833.75
2024-01-05T07:03:10.653Z,95838.63
2024-01-05T07:05:37.859Z,95846.75
2024-01-05T07:08:08.872Z,95853.47
2024-01-05T07:10:35.964Z,95849.47
2024-01-05T07:13:03.049Z,95866.38
2024-01-05T07:15:30.570Z,95869.78
2024-01-05T07:17:58.183Z,95878.16
2024-01-05T07:20:25.339Z,95886.63
2024-01-05T07:22:52.337Z,95892.16
2024-01-05T07:25:19.370Z,95897.09
2024-01-05T07:27:46.352Z,95886.50
2024-01-05T07:30:13.603Z,95880.06
2024-01-05T07:33:00.761Z,95881.25
2024-01-05T07:35:30.804Z,95886.53
2024-01-05T07:37:59.338Z,95875.22
2024-01-05T07:40:30.309Z,95867.91
2024-01-05T07:42:57.413Z,95866.63
2024-01-05T07:45:24.461Z,95873.13
2024-01-05T07:47:59.191Z,95860.44
2024-01-05T07:50:26.449Z,95859.22
2024-01-05T07:52:53.522Z,95846.25
2024-01-05T07:55:20.749Z,95845.22
2024-01-05T07:57:48.754Z,95823.03
2024-01-05T08:00:16.452Z,95813.25
2024-01-05T08:02:47.874Z,95822.53
2024-01-05T08:05:15.099Z,95815.91
2024-01-05T08:07:45.182Z,95819.88
2024-01-05T08:10:12.493Z,95825.69
2024-01-05T08:12:39.566Z,95818.25
2024-01-05T08:15:07.082Z,95819.03
2024-01-05T08:17:43.701Z,95817.13
2024-01-05T08:20:12.212Z,95817.09
2024-01-05T08:22:39.281Z,95821.97
2024-01-05T08:25:06.484Z,95814.28
2024-01-05T08:27:33.543Z,95810.63
2024-01-05T08:30:00.695Z,95827.25
2024-01-05T08:32:27.858Z,95829.28
2024-01-05T08:34:54.927Z,95837.78
2024-01-05T08:37:21.940Z,95831.47
2024-01-05T08:39:48.960Z,95841.06
2024-01-05T08:42:16.268Z,95844.06
2024-01-05T08:44:43.450Z,95842.44
2024-01-05T08:47:10.524Z,95838.91
2024-01-05T08:49:38.756Z,95834.38
2024-01-05T08:52:06.495Z,95833.13
2024-01-05T08:54:33.644Z,95831.00
2024-01-05T08:57:00.954Z,95830.72
2024-01-05T08:59:28.489Z,95846.31
2024-01-05T09:01:56.358Z,95850.50
2024-01-05T09:04:23.513Z,95848.13
2024-01-05T09:06:50.751Z,95848.16
2024-01-05T09:09:17.904Z,95849.75
2024-01-05T09:11:45.027Z,95851.63
2024-01-05T09:14:12.090Z,95852.41
2024-01-05T09:16:39.346Z,95846.03
2024-01-05T09:19:06.831Z,95849.31
2024-01-05T09:21:34.100Z,95844.31
2024-01-05T09:24:01.143Z,95843.34
2024-01-05T09:26:28.252Z,95843.69
2024-01-05T09:28:55.380Z,95840.75
2024-01-05T09:31:22.668Z,95844.69
2024-01-05T09:33:51.195Z,95833.31
2024-01-05T09:36:18.911Z,95831.97
2024-01-05T09:39:06.616Z,95809.34
2024-01-05T09:41:54.457Z,95808.56
2024-01-05T09:44:41.817Z,95813.63
2024-01-05T09:47:28.782Z,95812.84
2024-01-05T09:50:17.491Z,95809.81
2024-01-05T09:53:06.018Z,95815.63
2024-01-05T09:55:53.116Z,95812.94
2024-01-05T09:58:40.300Z,95809.03
2024-01-05T10:01:31.647Z,95809.28
2024-01-05T10:04:20.787Z,95816.41
2024-01-05T10:07:07.911Z,95809.19
2024-01-05T10:09:55.527Z,95807.50
2024-01-05T10:12:42.634Z,95807.94
2024-01-05T10:15:29.659Z,95792.88
2024-01-05T10:18:19.960Z,95778.03
2024-01-05T10:21:12.269Z,95789.69
2024-01-05T10:24:00.523Z,95777.50
2024-01-05T10:26:47.493Z,95780.19
2024-01-05T10:29:37.078Z,95783.78
2024-01-05T10:32:25.860Z,95775.44
2024-01-05T10:35:12.783Z,95782.00
2024-01-05T10:38:06.909Z,95770.66
2024-01-05T10:40:54.571Z,95767.31
2024-01-05T10:43:42.637Z,95763.31
2024-01-05T10:46:29.696Z,95768.38
2024-01-05T10:49:16.728Z,95767.91
2024-01-05T10:52:03.915Z,95774.13
2024-01-05T10:54:53.661Z,95784.66
2024-01-05T10:57:40.691Z,95789.88
2024-01-05T11:00:28.664Z,95793.03
2024-01-05T11:03:15.973Z,95784.56
2024-01-05T11:06:03.123Z,95786.34
2024-01-05T11:08:53.182Z,95790.31
2024-01-05T11:11:57.442Z,95787.91
2024-01-05T11:15:10.563Z,95791.00
2024-01-05T11:18:11.845Z,95784.47
2024-01-05T11:21:06.573Z,95785.69
2024-01-05T11:23:55.439Z,95780.41
2024-01-05T11:26:45.193Z,95785.69
2024-01-05T11:29:51.826Z,95785.97
2024-01-05T11:32:40.399Z,95780.59
2024-01-05T11:35:40.927Z,95774.56
2024-01-05T11:38:30.658Z,95770.75
2024-01-05T11:41:20.699Z,95772.69
2024-01-05T11:44:32.303Z,95769.88
2024-01-05T11:47:47.790Z,95761.72
2024-01-05T11:50:35.959Z,95757.81
2024-01-05T11:53:25.963Z,95751.63
2024-01-05T11:56:16.220Z,95755.00
2024-01-05T11:59:03.970Z,95747.47
2024-01-05T12:01:54.315Z,95740.59
2024-01-05T12:04:51.525Z,95739.13
2024-01-05T12:07:38.527Z,95735.94
2024-01-05T12:10:26.519Z,95732.38
2024-01-05T12:13:13.458Z,95728.94
2024-01-05T12:16:05.014Z,95732.97
2024-01-05T12:18:53.894Z,95733.88
2024-01-05T12:21:41.221Z,95726.59
2024-01-05T12:24:28.308Z,95708.56
2024-01-05T12:27:15.445Z,95708.06
2024-01-05T12:30:02.444Z,95706.34
2024-01-05T12:32:50.563Z,95700.88
2024-01-05T12:35:37.499Z,95687.91
2024-01-05T12:38:25.433Z,95689.84
2024-01-05T12:41:17.544Z,95673.63
2024-01-05T12:44:09.225Z,95671.25
2024-01-05T12:46:56.184Z,95663.63
2024-01-05T12:49:44.778Z,95667.63
2024-01-05T12:52:36.761Z,95668.84
2024-01-05T12:55:33.984Z,95671.13
2024-01-05T12:58:20.949Z,95670.06
2024-01-05T13:01:24.758Z,95676.44
2024-01-05T13:04:12.219Z,95676.66
2024-01-05T13:06:59.355Z,95682.25
2024-01-05T13:09:46.338Z,95678.28
2024-01-05T13:12:33.353Z,95675.25
2024-01-05T13:15:21.086Z,95679.88
2024-01-05T13:18:08.369Z,95680.84
2024-01-05T13:20:55.415Z,95673.56
2024-01-05T13:23:44.105Z,95674.88
2024-01-05T13:26:31.209Z,95679.16
2024-01-05T13:29:18.137Z,95667.19
2024-01-05T13:32:05.585Z,95680.09
2024-01-05T13:34:52.832Z,95679.19
2024-01-05T13:37:40.016Z,95672.34
2024-01-05T13:40:28.100Z,95671.72
2024-01-05T13:43:15.037Z,95683.59
2024-01-05T13:46:04.360Z,95691.31
2024-01-05T13:48:51.839Z,95688.94
2024-01-05T13:51:38.865Z,95698.81
2024-01-05T13:54:25.850Z,95707.94
2024-01-05T13:57:13.106Z,95703.78
2024-01-05T14:00:00.226Z,95710.00
2024-01-05T14:02:47.647Z,95721.84
2024-01-05T14:05:35.006Z,95717.31
2024-01-05T14:08:24.094Z,95724.88
2024-01-05T14:11:16.298Z,95729.69
2024-01-05T14:14:04.541Z,95719.00
2024-01-05T14:16:53.214Z,95738.56
2024-01-05T14:19:43.952Z,95736.66
2024-01-05T14:22:32.747Z,95737.66
2024-01-05T14:25:19.693Z,95736.41
2024-01-05T14:28:06.619Z,95741.75
2024-01-05T14:30:53.719Z,95743.97
2024-01-05T14:33:42.001Z,95729.72
2024-01-05T14:36:29.192Z,95739.50
2024-01-05T14:39:16.199Z,95741.09
2024-01-05T14:42:03.628Z,95746.03
2024-01-05T14:44:50.653Z,95752.84
2024-01-05T14:47:39.346Z,95748.88
2024-01-05T14:50:27.620Z,95749.34
2024-01-05T14:53:16.115Z,95744.59
2024-01-05T14:56:04.941Z,95739.19
2024-01-05T14:58:51.974Z,95739.31
2024-01-05T15:01:39.673Z,95743.44
2024-01-05T15:04:29.413Z,95743.06
2024-01-05T15:07:18.092Z,95751.94
2024-01-05T15:10:06.089Z,95752.31
2024-01-05T15:12:53.798Z,95750.16
2024-01-05T15:15:40.777Z,95751.25
2024-01-05T15:18:28.181Z,95756.84
2024-01-05T15:21:28.037Z,95751.75
2024-01-05T15:24:15.208Z,95742.34
2024-01-05T15:27:02.341Z,95751.56
2024-01-05T15:29:49.360Z,95747.19
2024-01-05T15:32:36.531Z,95741.28
2024-01-05T15:35:23.581Z,95750.19
2024-01-05T15:38:10.599Z,95749.59
2024-01-05T15:40:57.567Z,95746.03
2024-01-05T15:43:44.525Z,95748.00
2024-01-05T15:46:31.476Z,95746.44
2024-01-05T15:49:18.784Z,95747.00
2024-01-05T15:52:06.079Z,95744.84
2024-01-05T15:54:53.013Z,95738.53
2024-01-05T15:57:40.821Z,95743.06
2024-01-05T16:00:28.374Z,95734.00
2024-01-05T16:03:16.158Z,95733.59
2024-01-05T16:06:03.323Z,95742.28
2024-01-05T16:08:50.960Z,95741.22
2024-01-05T16:11:38.293Z,95740.69
2024-01-05T16:14:25.237Z,95736.75
2024-01-05T16:17:12.566Z,95738.34
2024-01-05T16:19:59.644Z,95734.09
2024-01-05T16:22:47.014Z,95734.09
2024-01-05T16:25:33.950Z,95722.75
2024-01-05T16:28:20.944Z,95719.38
2024-01-05T16:31:09.602Z,95729.06
2024-01-05T16:33:56.726Z,95730.81
2024-01-05T16:36:43.833Z,95722.94
2024-01-05T16:39:30.882Z,95723.13
2024-01-05T16:42:17.846Z,95712.34
2024-01-05T16:45:05.105Z,95723.72
2024-01-05T16:47:52.194Z,95719.97
2024-01-05T16:50:42.539Z,95718.38
2024-01-05T16:53:30.570Z,95718.38
2024-01-05T16:56:28.410Z,95714.63
2024-01-05T16:59:15.350Z,95711.28
2024-01-05T17:02:02.299Z,95712.94
2024-01-05T17:04:49.385Z,95719.97
2024-01-05T17:07:36.509Z,95715.41
2024-01-05T17:10:23.766Z,95711.69
2024-01-05T17:13:10.674Z,95711.66
2024-01-05T17:15:57.749Z,95710.88
2024-01-05T17:18:45.998Z,95708.31
2024-01-05T17:21:33.208Z,95704.06
2024-01-05T17:24:20.150Z,95702.19
2024-01-05T17:27:07.857Z,95703.56
2024-01-05T17:29:54.908Z,95700.81
2024-01-05T17:32:42.415Z,95697.38
2024-01-05T17:35:29.407Z,95698.47
2024-01-05T17:38:16.462Z,95693.59
2024-01-05T17:41:03.956Z,95701.84
2024-01-05T17:43:50.883Z,95710.81
2024-01-05T17:46:41.186Z,95697.91
2024-01-05T17:49:28.216Z,95699.06
2024-01-05T17:52:15.477Z,95709.81
2024-01-05T17:55:02.501Z,95698.47
2024-01-05T17:57:49.514Z,95704.00
2024-01-05T18:00:17.927Z,95702.13
2024-01-05T18:02:45.128Z,95707.91
2024-01-05T18:05:12.206Z,95707.50
2024-01-05T18:07:39.311Z,95712.16
2024-01-05T18:10:07.224Z,95716.91
2024-01-05T18:12:34.241Z,95714.91
2024-01-05T18:15:01.307Z,95716.16
2024-01-05T18:17:28.758Z,95714.75
2024-01-05T18:19:56.611Z,95725.59
2024-01-05T18:22:23.806Z,95726.59
2024-01-05T18:24:50.916Z,95721.00
2024-01-05T18:27:18.124Z,95718.13
2024-01-05T18:29:45.504Z,95721.53
2024-01-05T18:32:13.810Z,95710.97
2024-01-05T18:34:46.153Z,95717.59
2024-01-05T18:37:13.304Z,95727.94
2024-01-05T18:39:41.972Z,95715.66
2024-01-05T18:42:10.144Z,95723.44
2024-01-05T18:44:37.312Z,95725.06
2024-01-05T18:47:04.475Z,95727.06
2024-01-05T18:49:31.790Z,95720.16
2024-01-05T18:51:59.205Z,95725.09
2024-01-05T18:54:26.542Z,95719.78
2024-01-05T18:56:53.970Z,95727.66
2024-01-05T18:59:21.096Z,95729.22
2024-01-05T19:01:48.116Z,95728.75
2024-01-05T19:04:15.364Z,95734.19
2024-01-05T19:06:42.748Z,95736.75
2024-01-05T19:09:12.706Z,95736.72
2024-01-05T19:11:42.145Z,95749.56
2024-01-05T19:14:09.350Z,95741.47
2024-01-05T19:16:42.506Z,95756.69
2024-01-05T19:19:11.501Z,95749.41
2024-01-05T19:21:49.688Z,95750.06
2024-01-05T19:24:23.013Z,95746.03
2024-01-05T19:26:50.342Z,95755.00
2024-01-05T19:29:17.552Z,95762.94
2024-01-05T19:31:44.932Z,95754.16
2024-01-05T19:34:13.361Z,95759.84
2024-01-05T19:36:47.267Z,95756.09
2024-01-05T19:39:15.450Z,95746.22
2024-01-05T19:41:47.390Z,95748.56
2024-01-05T19:44:18.362Z,95756.31
2024-01-05T19:46:45.990Z,95757.09
2024-01-05T19:49:15.560Z,95753.72
2024-01-05T19:51:47.021Z,95752.34
2024-01-05T19:54:21.046Z,95759.66
2024-01-05T19:56:49.172Z,95755.50
2024-01-05T19:59:18.158Z,95754.34
2024-01-05T20:01:47.553Z,95752.75
2024-01-05T20:04:17.867Z,95744.06
2024-01-05T20:06:52.372Z,95751.69
2024-01-05T20:09:22.975Z,95749.41
2024-01-05T20:11:51.735Z,95752.69
2024-01-05T20:14:20.964Z,95755.72
2024-01-05T20:16:48.479Z,95747.41
2024-01-05T20:19:37.379Z,95744.53
2024-01-05T20:22:07.081Z,95746.63
2024-01-05T20:24:34.300Z,95741.28
2024-01-05T20:27:04.287Z,95744.06
2024-01-05T20:29:31.541Z,95751.56
2024-01-05T20:31:58.818Z,95746.81
2024-01-05T20:34:26.656Z,95742.84
2024-01-05T20:36:55.685Z,95746.22
2024-01-05T20:39:23.624Z,95747.22
2024-01-05T20:41:50.824Z,95746.63
2024-01-05T20:44:19.247Z,95740.22
2024-01-05T20:46:48.764Z,95741.88
2024-01-05T20:49:17.296Z,95735.09
2024-01-05T20:51:45.485Z,95745.41
2024-01-05T20:54:12.789Z,95734.00
2024-01-05T20:56:40.146Z,95737.34
2024-01-05T20:59:07.503Z,95738.34
2024-01-05T21:01:34.877Z,95734.78
2024-01-05T21:04:02.359Z,95732.63
2024-01-05T21:06:29.525Z,95740.22
2024-01-05T21:08:56.693Z,95734.56
2024-01-05T21:11:26.749Z,95728.66
2024-01-05T21:13:53.828Z,95731.59
2024-01-05T21:16:21.103Z,95735.69
2024-01-05T21:18:48.342Z,95736.16
2024-01-05T21:21:15.554Z,95727.94
2024-01-05T21:23:42.650Z,95719.75
2024-01-05T21:26:10.218Z,95728.66
2024-01-05T21:28:37.525Z,95725.28
2024-01-05T21:31:06.206Z,95728.53
2024-01-05T21:33:33.473Z,95725.19
2024-01-05T21:36:00.602Z,95718.75
2024-01-05T21:38:28.091Z,95723.75
2024-01-05T21:40:55.099Z,95717.81
2024-01-05T21:43:24.961Z,95709.81
2024-01-05T21:45:52.244Z,95712.97
2024-01-05T21:48:19.398Z,95713.81
2024-01-05T21:50:46.497Z,95714.19
2024-01-05T21:53:14.097Z,95717.09
2024-01-05T21:55:41.325Z,95718.00
2024-01-05T21:58:11.378Z,95724.63
2024-01-05T22:00:40.514Z,95718.06
2024-01-05T22:03:07.984Z,95723.72
2024-01-05T22:05:35.268Z,95729.63
2024-01-05T22:08:02.249Z,95719.28
2024-01-05T22:10:29.400Z,95728.16
2024-01-05T22:12:56.531Z,95720.50
2024-01-05T22:15:23.695Z,95718.47
2024-01-05T22:17:50.858Z,95718.78
2024-01-05T22:20:17.937Z,95722.22
2024-01-05T22:22:45.000Z,95724.16
2024-01-05T22:25:12.493Z,95729.41
2024-01-05T22:27:39.564Z,95728.28
2024-01-05T22:30:07.497Z,95734.19
2024-01-05T22:32:34.625Z,95743.06
2024-01-05T22:35:01.911Z,95736.97
2024-01-05T22:37:28.962Z,95753.50
2024-01-05T22:39:56.041Z,95738.66
2024-01-05T22:42:23.198Z,95738.53
2024-01-05T22:44:50.219Z,95733.09
2024-01-05T22:47:17.377Z,95731.78
2024-01-05T22:49:44.547Z,95733.44
2024-01-05T22:52:11.668Z,95739.72
2024-01-05T22:54:40.049Z,95742.97
2024-01-05T22:57:07.833Z,95740.19
2024-01-05T22:59:35.072Z,95737.28
